createdAt,value
2024-05-09T00:00:39.393Z,11.27
2024-05-09T00:05:37.574Z,12.43
2024-05-09T00:10:37.558Z,12.00
2024-05-09T00:15:36.507Z,12.02
2024-05-09T00:20:38.840Z,11.57
2024-05-09T00:25:38.076Z,11.27
2024-05-09T00:30:36.741Z,10.50
2024-05-09T00:35:34.580Z,10.75
2024-05-09T00:40:41.505Z,10.90
2024-05-09T00:45:39.977Z,10.07
2024-05-09T00:50:38.785Z,11.45
2024-05-09T00:55:36.988Z,10.80
2024-05-09T01:00:39.941Z,10.15
2024-05-09T01:05:39.165Z,10.07
2024-05-09T01:10:36.954Z,10.15
2024-05-09T01:15:34.739Z,10.75
2024-05-09T01:20:40.491Z,10.00
2024-05-09T01:25:40.065Z,10.88
2024-05-09T01:30:37.880Z,9.85
2024-05-09T01:35:35.308Z,11.57
2024-05-09T01:40:37.781Z,9.73
2024-05-09T01:45:36.750Z,10.23
2024-05-09T01:50:38.565Z,10.30
2024-05-09T01:55:38.366Z,10.07
2024-05-09T02:00:40.083Z,10.23
2024-05-09T02:05:39.195Z,10.30
2024-05-09T02:10:36.059Z,10.57
2024-05-09T02:15:32.806Z,10.32
2024-05-09T02:20:35.828Z,10.93
2024-05-09T02:25:33.698Z,9.75
2024-05-09T02:30:38.645Z,9.77
2024-05-09T02:35:38.164Z,10.13
2024-05-09T02:40:38.007Z,10.10
2024-05-09T02:45:36.224Z,10.10
2024-05-09T02:50:38.023Z,10.57
2024-05-09T02:55:36.572Z,10.98
2024-05-09T03:00:39.089Z,10.73
2024-05-09T03:05:38.379Z,11.00
2024-05-09T03:10:37.535Z,11.85
2024-05-09T03:15:35.754Z,10.75
2024-05-09T03:20:35.062Z,10.88
2024-05-09T03:25:33.052Z,10.45
2024-05-09T03:30:39.016Z,11.43
2024-05-09T03:35:39.106Z,11.05
2024-05-09T03:40:35.928Z,11.23
2024-05-09T03:45:32.698Z,10.68
2024-05-09T03:50:33.963Z,11.15
2024-05-09T03:55:32.625Z,10.32
2024-05-09T04:00:36.937Z,11.27
2024-05-09T04:05:35.823Z,10.85
2024-05-09T04:10:34.499Z,10.18
2024-05-09T04:15:32.371Z,11.18
2024-05-09T04:20:37.300Z,11.07
2024-05-09T04:25:37.080Z,10.60
2024-05-09T04:30:38.611Z,10.60
2024-05-09T04:35:37.803Z,10.93
2024-05-09T04:40:36.919Z,10.70
2024-05-09T04:45:34.633Z,10.25
2024-05-09T04:50:36.949Z,10.68
2024-05-09T04:55:36.103Z,11.23
2024-05-09T05:00:36.934Z,12.40
2024-05-09T05:10:36.074Z,10.63
2024-05-09T05:15:33.809Z,10.52
2024-05-09T05:20:33.678Z,10.57
2024-05-09T05:25:31.033Z,10.30
2024-05-09T05:30:32.796Z,10.93
2024-05-09T05:35:31.577Z,11.05
2024-05-09T05:40:35.777Z,10.82
2024-05-09T05:45:34.575Z,12.05
2024-05-09T05:50:35.948Z,11.57
2024-05-09T05:55:34.657Z,10.95
2024-05-09T06:00:38.238Z,10.77
2024-05-09T06:05:38.674Z,11.35
2024-05-09T06:10:39.334Z,10.50
2024-05-09T06:15:37.806Z,12.13
2024-05-09T06:20:37.270Z,12.65
2024-05-09T06:25:35.943Z,12.90
2024-05-09T06:30:39.402Z,12.57
2024-05-09T06:35:38.599Z,11.77
2024-05-09T06:40:38.549Z,10.90
2024-05-09T06:45:37.125Z,12.63
2024-05-09T06:50:37.736Z,11.95
2024-05-09T06:55:36.651Z,12.07
2024-05-09T07:00:38.935Z,11.98
2024-05-09T07:05:37.893Z,10.48
2024-05-09T07:10:36.303Z,11.60
2024-05-09T07:15:33.743Z,11.02
2024-05-09T07:20:34.579Z,12.32
2024-05-09T07:25:32.022Z,10.73
2024-05-09T07:30:33.475Z,11.60
2024-05-09T07:35:31.686Z,10.02
2024-05-09T07:40:35.127Z,10.57
2024-05-09T07:52:23.409Z,10.82
2024-05-09T07:55:51.253Z,10.23
2024-05-09T08:00:48.281Z,10.40
2024-05-09T08:05:45.327Z,10.80
2024-05-09T08:10:42.356Z,11.02
2024-05-09T08:15:39.441Z,10.75
2024-05-09T08:20:39.385Z,10.82
2024-05-09T08:25:36.361Z,9.45
2024-05-09T08:30:37.056Z,9.43
2024-05-09T08:35:35.322Z,10.02
2024-05-09T08:40:35.801Z,9.07
2024-05-09T08:45:35.423Z,9.15
2024-05-09T08:50:38.445Z,9.43
2024-05-09T08:55:40.610Z,8.88
2024-05-09T09:00:49.793Z,8.57
2024-05-09T09:05:50.632Z,8.60
2024-05-09T09:10:52.864Z,8.43
2024-05-09T09:15:50.281Z,7.80
2024-05-09T09:20:47.344Z,7.78
2024-05-09T09:25:44.118Z,8.60
2024-05-09T09:30:41.319Z,7.70
2024-05-09T09:35:40.030Z,8.80
2024-05-09T09:40:42.811Z,8.40
2024-05-09T09:45:44.442Z,8.70
2024-05-09T09:50:41.799Z,9.07
2024-05-09T09:55:39.966Z,7.97
2024-05-09T10:00:36.929Z,8.48
2024-05-09T10:05:34.275Z,8.32
2024-05-09T10:10:33.453Z,8.35
2024-05-09T10:15:31.461Z,7.88
2024-05-09T10:20:39.149Z,8.25
2024-05-09T10:25:36.513Z,7.75
2024-05-09T10:30:36.210Z,7.78
2024-05-09T10:35:33.536Z,7.63
2024-05-09T10:40:31.836Z,7.68
2024-05-09T10:45:28.997Z,7.72
2024-05-09T10:50:29.217Z,8.27
2024-05-09T10:55:30.756Z,7.85
2024-05-09T11:00:36.355Z,8.23
2024-05-09T11:05:34.745Z,7.82
2024-05-09T11:10:34.153Z,7.78
2024-05-09T11:15:41.282Z,7.28
2024-05-09T11:20:38.586Z,7.20
2024-05-09T11:25:35.481Z,8.60
2024-05-09T11:30:35.274Z,8.43
2024-05-09T11:35:33.030Z,7.25
2024-05-09T11:40:34.222Z,8.65
2024-05-09T11:45:31.582Z,8.10
2024-05-09T11:50:33.059Z,7.63
2024-05-09T11:55:36.271Z,8.50
2024-05-09T12:00:37.029Z,9.18
2024-05-09T12:05:34.957Z,7.97
2024-05-09T12:10:34.469Z,8.10
2024-05-09T12:15:32.989Z,8.93
2024-05-09T12:20:36.443Z,8.23
2024-05-09T12:25:36.527Z,9.02
2024-05-09T12:30:38.148Z,8.70
2024-05-09T12:35:37.132Z,8.23
2024-05-09T12:40:37.278Z,8.05
2024-05-09T12:45:35.851Z,7.95
2024-05-09T12:50:34.355Z,7.43
2024-05-09T12:55:37.736Z,8.23
2024-05-09T13:00:41.667Z,8.15
2024-05-09T13:05:41.059Z,8.38
2024-05-09T13:10:38.157Z,7.15
2024-05-09T13:15:36.776Z,8.60
2024-05-09T13:20:35.605Z,9.00
2024-05-09T13:25:34.479Z,7.65
2024-05-09T13:30:39.196Z,8.93
2024-05-09T13:35:38.478Z,8.07
2024-05-09T13:40:36.497Z,8.07
2024-05-09T13:45:33.889Z,8.82
2024-05-09T13:50:34.831Z,7.97
2024-05-09T13:55:33.437Z,7.47
2024-05-09T14:00:42.136Z,7.43
2024-05-09T14:05:44.011Z,8.88
2024-05-09T14:10:44.392Z,7.97
2024-05-09T14:15:41.731Z,8.50
2024-05-09T14:20:38.563Z,7.32
2024-05-09T14:25:38.767Z,7.55
2024-05-09T14:30:39.203Z,7.13
2024-05-09T14:35:37.667Z,7.35
2024-05-09T14:40:41.623Z,7.60
2024-05-09T14:45:40.903Z,7.72
2024-05-09T14:50:39.773Z,7.40
2024-05-09T14:55:38.878Z,6.25
2024-05-09T15:00:40.391Z,7.90
2024-05-09T15:05:40.380Z,6.70
2024-05-09T15:10:38.627Z,7.03
2024-05-09T15:15:35.538Z,8.23
2024-05-09T15:20:36.022Z,7.45
2024-05-09T15:25:34.140Z,7.40
2024-05-09T15:30:33.370Z,8.30
2024-05-09T15:35:31.307Z,7.05
2024-05-09T15:40:36.153Z,6.70
2024-05-09T15:45:36.681Z,8.52
2024-05-09T15:50:38.830Z,8.90
2024-05-09T15:55:38.060Z,9.75
2024-05-09T16:00:39.237Z,9.32
2024-05-09T16:05:39.213Z,9.52
2024-05-09T16:10:36.726Z,10.45
2024-05-09T16:15:34.304Z,9.68
2024-05-09T16:20:38.847Z,9.60
2024-05-09T16:25:39.225Z,9.85
2024-05-09T16:30:36.601Z,10.85
2024-05-09T16:35:34.492Z,9.10
2024-05-09T16:40:37.995Z,10.00
2024-05-09T16:45:37.899Z,10.02
2024-05-09T16:50:35.889Z,9.35
2024-05-09T16:55:33.427Z,9.05
2024-05-09T17:00:38.858Z,8.43
2024-05-09T17:05:39.523Z,9.43
2024-05-09T17:10:37.010Z,9.30
2024-05-09T17:15:36.921Z,10.57
2024-05-09T17:20:36.708Z,10.00
2024-05-09T17:25:34.683Z,8.55
2024-05-09T17:30:35.698Z,8.57
2024-05-09T17:35:34.865Z,8.88
2024-05-09T17:40:35.526Z,8.93
2024-05-09T17:45:34.327Z,9.00
2024-05-09T17:50:35.575Z,7.55
2024-05-09T17:55:34.858Z,8.32
2024-05-09T18:00:38.055Z,7.53
2024-05-09T18:05:38.249Z,8.77
2024-05-09T18:10:38.556Z,8.65
2024-05-09T18:15:36.942Z,8.15
2024-05-09T18:20:41.799Z,10.23
2024-05-09T18:25:41.920Z,9.68
2024-05-09T18:30:39.178Z,11.07
2024-05-09T18:35:36.853Z,9.95
2024-05-09T18:40:36.738Z,11.30
2024-05-09T18:45:35.117Z,10.90
2024-05-09T18:50:36.314Z,10.50
2024-05-09T18:55:35.986Z,11.95
2024-05-09T19:00:36.872Z,11.57
2024-05-09T19:05:36.484Z,11.82
2024-05-09T19:10:35.113Z,12.15
2024-05-09T19:15:32.882Z,10.82
2024-05-09T19:20:34.284Z,12.25
2024-05-09T19:25:32.938Z,10.57
2024-05-09T19:30:37.871Z,9.93
2024-05-09T19:35:38.102Z,10.80
2024-05-09T19:40:35.711Z,10.10
2024-05-09T19:45:33.896Z,9.35
2024-05-09T19:50:39.320Z,10.30
2024-05-09T19:55:40.316Z,9.45
2024-05-09T20:00:39.961Z,8.18
2024-05-09T20:05:39.645Z,9.32
2024-05-09T20:10:37.370Z,8.63
2024-05-09T20:15:35.452Z,8.13
2024-05-09T20:20:38.122Z,8.68
2024-05-09T20:25:38.392Z,8.88
2024-05-09T20:30:36.110Z,9.18
2024-05-09T20:35:33.561Z,9.85
2024-05-09T20:40:35.061Z,9.20
2024-05-09T20:45:35.210Z,9.30
2024-05-09T20:50:38.214Z,8.80
2024-05-09T20:55:37.930Z,8.05
2024-05-09T21:00:39.811Z,9.02
2024-05-09T21:05:40.342Z,8.27
2024-05-09T21:10:37.855Z,8.77
2024-05-09T21:15:35.843Z,9.07
2024-05-09T21:20:34.409Z,8.80
2024-05-09T21:25:32.150Z,9.40
2024-05-09T21:30:38.521Z,10.00
2024-05-09T21:35:38.951Z,9.73
2024-05-09T21:40:36.927Z,9.43
2024-05-09T21:45:34.692Z,9.48
2024-05-09T21:50:38.801Z,9.45
2024-05-09T21:55:38.222Z,9.52
2024-05-09T22:00:38.371Z,9.85
2024-05-09T22:05:36.183Z,9.82
2024-05-09T22:10:35.561Z,10.52
2024-05-09T22:15:35.444Z,10.93
2024-05-09T22:20:37.648Z,11.02
2024-05-09T22:25:38.373Z,10.32
2024-05-09T22:30:38.777Z,10.82
2024-05-09T22:35:36.777Z,10.47
2024-05-09T22:40:43.074Z,10.23
2024-05-09T22:45:45.028Z,10.88
2024-05-09T22:50:41.855Z,10.68
2024-05-09T22:55:38.621Z,10.77
2024-05-09T23:00:35.748Z,10.85
2024-05-09T23:05:33.158Z,11.13
2024-05-09T23:10:35.944Z,11.50
2024-05-09T23:15:34.602Z,11.40
2024-05-09T23:20:37.288Z,11.02
2024-05-09T23:25:36.773Z,10.23
2024-05-09T23:30:38.195Z,10.50
2024-05-09T23:35:37.146Z,11.18
2024-05-09T23:40:38.816Z,10.75
2024-05-09T23:45:37.835Z,11.48
2024-05-09T23:50:37.654Z,11.77
2024-05-09T23:55:36.120Z,12.67
